Time;durP1;ratioP1;P1;durP2;ratioP2;P2;SDS_P1;SDS_P2;PMS_P1;PMS_P2;Temp;Humidity;BMP_temperature;BMP_pressure;BME280_temperature;BME280_humidity;BME280_pressure;Samples;Min_cycle;Max_cycle;Signal;HPM_P1;HPM_P2
2022/05/03 00:02:21;;;;;;;6.07;4.00;;;8.60;99.90;;;;;;5023906;28;20730;-87
2022/05/03 00:05:07;;;;;;;6.60;4.17;;;8.50;99.90;;;;;;5008372;28;20226;-88
2022/05/03 00:07:44;;;;;;;5.53;3.90;;;8.40;99.90;;;;;;4997448;28;20217;-85
2022/05/03 00:10:20;;;;;;;5.00;3.57;;;8.40;99.90;;;;;;5005319;28;20218;-87
2022/05/03 00:12:59;;;;;;;8.60;3.83;;;8.30;99.90;;;;;;5006083;28;20207;-87
2022/05/03 00:15:29;;;;;;;5.50;3.80;;;8.30;99.90;;;;;;5003315;28;20587;-86
2022/05/03 00:18:01;;;;;;;6.37;4.13;;;8.20;99.90;;;;;;5007899;28;20236;-87
2022/05/03 00:20:29;;;;;;;6.70;3.97;;;8.20;99.90;;;;;;5008721;28;20229;-87
2022/05/03 00:23:00;;;;;;;5.73;3.80;;;8.20;99.90;;;;;;5006955;28;20215;-86
2022/05/03 00:25:29;;;;;;;7.63;4.37;;;7.90;99.90;;;;;;5002167;28;20202;-87
2022/05/03 00:28:02;;;;;;;9.17;3.70;;;8.10;99.90;;;;;;5007574;28;20220;-86
2022/05/03 00:30:33;;;;;;;8.03;3.93;;;7.80;99.90;;;;;;5011173;28;20217;-87
2022/05/03 00:33:07;;;;;;;7.53;4.13;;;7.90;99.90;;;;;;5012764;28;20244;-87
2022/05/03 00:35:40;;;;;;;5.97;3.77;;;8.00;99.90;;;;;;5007891;28;20269;-87
2022/05/03 00:38:08;;;;;;;8.63;3.90;;;7.90;99.90;;;;;;4997994;28;20849;-87
2022/05/03 00:40:45;;;;;;;5.57;4.20;;;7.90;99.90;;;;;;5018797;28;20234;-87
2022/05/03 00:43:23;;;;;;;6.93;4.43;;;7.80;99.90;;;;;;5017922;28;20220;-86
2022/05/03 00:46:10;;;;;;;8.13;4.13;;;7.80;99.90;;;;;;5008631;28;20246;-86
2022/05/03 00:49:10;;;;;;;5.93;4.17;;;7.80;99.90;;;;;;5008793;28;20292;-86
2022/05/03 00:52:00;;;;;;;7.67;4.50;;;7.70;99.90;;;;;;5002975;28;20226;-86
2022/05/03 00:54:54;;;;;;;6.77;4.50;;;7.70;99.90;;;;;;5004083;28;20205;-84
2022/05/03 00:57:44;;;;;;;7.57;4.20;;;7.60;99.90;;;;;;5011569;28;20231;-87
2022/05/03 01:00:14;;;;;;;6.43;4.10;;;7.60;99.90;;;;;;5010304;28;20270;-87
2022/05/03 01:03:06;;;;;;;6.60;4.47;;;7.60;99.90;;;;;;5010821;28;20212;-88
2022/05/03 01:06:03;;;;;;;6.80;4.37;;;7.60;99.90;;;;;;5005960;28;20233;-84
2022/05/03 01:08:46;;;;;;;6.53;4.50;;;7.50;99.90;;;;;;5004164;28;20980;-85
2022/05/03 01:11:33;;;;;;;7.03;4.90;;;7.40;99.90;;;;;;5003147;28;20312;-86
2022/05/03 01:14:29;;;;;;;6.27;4.47;;;7.50;99.90;;;;;;5010393;28;20199;-88
2022/05/03 01:17:03;;;;;;;8.90;5.43;;;7.40;99.90;;;;;;5008975;28;20600;-87
2022/05/03 01:19:56;;;;;;;6.80;4.53;;;7.40;99.90;;;;;;5006635;28;20230;-85
2022/05/03 01:22:42;;;;;;;8.43;4.90;;;7.40;99.90;;;;;;5016635;28;20544;-87
2022/05/03 01:25:25;;;;;;;7.67;4.60;;;7.40;99.90;;;;;;5016729;28;20212;-86
2022/05/03 01:28:05;;;;;;;6.77;4.53;;;7.40;99.90;;;;;;5005201;28;20233;-86
2022/05/03 01:30:36;;;;;;;8.43;5.00;;;7.40;99.90;;;;;;5019802;28;20252;-87
2022/05/03 01:33:08;;;;;;;7.37;5.13;;;7.30;99.90;;;;;;5014309;28;20239;-87
2022/05/03 01:35:39;;;;;;;9.53;5.40;;;7.30;99.90;;;;;;5011506;28;20220;-85
2022/05/03 01:38:18;;;;;;;7.90;5.37;;;7.30;99.90;;;;;;5013935;28;20223;-85
2022/05/03 01:41:14;;;;;;;8.77;5.07;;;7.40;99.90;;;;;;5026480;28;20196;-86
2022/05/03 01:44:06;;;;;;;10.27;5.43;;;7.30;99.90;;;;;;5048383;28;20209;-86
2022/05/03 01:46:42;;;;;;;8.40;5.57;;;7.20;99.90;;;;;;5041176;28;20239;-86
2022/05/03 01:53:06;;;;;;;8.43;5.23;;;7.20;99.90;;;;;;4941488;29;20213;-84
2022/05/03 01:56:11;;;;;;;9.63;5.43;;;7.20;99.90;;;;;;5027531;28;20243;-86
2022/05/03 01:59:20;;;;;;;7.20;4.97;;;7.10;99.90;;;;;;5038878;28;20246;-85
2022/05/03 02:05:53;;;;;;;8.20;5.30;;;7.10;99.90;;;;;;4997525;28;20170;-85
2022/05/03 02:08:23;;;;;;;8.67;5.77;;;7.00;99.90;;;;;;4996429;28;20208;-86
2022/05/03 02:11:27;;;;;;;9.70;5.53;;;7.00;99.90;;;;;;5010649;28;20195;-85
2022/05/03 02:14:45;;;;;;;10.40;5.80;;;7.00;99.90;;;;;;5026557;28;20300;-85
2022/05/03 02:17:50;;;;;;;10.37;5.57;;;7.00;99.90;;;;;;5003819;28;20677;-85
2022/05/03 02:21:13;;;;;;;8.13;5.57;;;7.00;99.90;;;;;;5038272;28;20223;-85
2022/05/03 02:24:20;;;;;;;9.73;6.00;;;6.90;99.90;;;;;;5031798;28;20265;-86
2022/05/03 02:27:15;;;;;;;10.80;6.20;;;6.90;99.90;;;;;;5035707;28;20205;-86
2022/05/03 02:29:49;;;;;;;9.37;5.33;;;6.90;99.90;;;;;;5050975;28;20191;-86
2022/05/03 02:32:56;;;;;;;8.67;5.73;;;6.80;99.90;;;;;;5033937;28;20186;-85
2022/05/03 02:35:33;;;;;;;10.00;6.00;;;6.90;99.90;;;;;;5020801;28;20239;-87
2022/05/03 02:38:06;;;;;;;10.13;5.93;;;6.80;99.90;;;;;;5022728;28;20222;-85
2022/05/03 02:40:44;;;;;;;10.30;6.07;;;6.80;99.90;;;;;;5035484;28;20199;-87
2022/05/03 02:43:25;;;;;;;9.43;6.37;;;6.80;99.90;;;;;;5033876;28;20234;-87
2022/05/03 02:46:39;;;;;;;11.43;6.27;;;6.80;99.90;;;;;;5037786;28;20304;-87
2022/05/03 02:49:31;;;;;;;8.00;5.47;;;6.70;99.90;;;;;;5009176;28;21015;-86
2022/05/03 02:52:43;;;;;;;12.13;5.97;;;6.70;99.90;;;;;;5048553;28;20203;-87
2022/05/03 02:55:52;;;;;;;10.00;6.03;;;6.60;99.90;;;;;;5038822;28;20188;-86
2022/05/03 02:58:53;;;;;;;8.33;5.90;;;6.60;99.90;;;;;;5042953;28;20246;-85
2022/05/03 03:01:56;;;;;;;11.53;6.60;;;6.50;99.90;;;;;;5047950;28;20216;-87
2022/05/03 03:04:44;;;;;;;8.17;5.63;;;6.50;99.90;;;;;;5033344;28;20202;-86
2022/05/03 03:07:21;;;;;;;10.57;6.00;;;6.50;99.90;;;;;;5023352;28;20243;-86
2022/05/03 03:09:55;;;;;;;9.27;6.20;;;6.40;99.90;;;;;;5018414;28;20275;-87
2022/05/03 03:12:32;;;;;;;12.20;6.50;;;6.50;99.90;;;;;;5023077;28;20212;-86
2022/05/03 03:15:11;;;;;;;11.60;7.53;;;6.40;99.90;;;;;;5027562;28;20217;-86
2022/05/03 03:17:42;;;;;;;10.93;6.60;;;6.40;99.90;;;;;;5017913;28;20221;-85
2022/05/03 03:20:11;;;;;;;14.33;6.80;;;6.40;99.90;;;;;;5013886;28;20237;-84
2022/05/03 03:22:47;;;;;;;10.07;6.50;;;6.30;99.90;;;;;;5008549;28;20219;-87
2022/05/03 03:25:20;;;;;;;10.00;6.17;;;6.30;99.90;;;;;;5006896;28;20198;-86
2022/05/03 03:27:57;;;;;;;11.33;7.03;;;6.30;99.90;;;;;;5010006;28;20294;-86
2022/05/03 03:30:28;;;;;;;12.27;6.50;;;6.30;99.90;;;;;;5004864;28;20210;-87
2022/05/03 03:32:58;;;;;;;12.07;6.73;;;6.20;99.90;;;;;;5010675;28;20207;-87
2022/05/03 03:35:29;;;;;;;9.63;6.77;;;6.20;99.90;;;;;;5011008;28;20220;-86
2022/05/03 03:38:01;;;;;;;12.17;6.60;;;6.20;99.90;;;;;;5002053;28;20290;-86
2022/05/03 03:40:28;;;;;;;13.90;7.17;;;6.20;99.90;;;;;;5014913;28;20217;-86
2022/05/03 03:42:56;;;;;;;11.20;6.57;;;6.20;99.90;;;;;;5017485;28;20195;-86
2022/05/03 03:45:24;;;;;;;12.90;7.00;;;6.20;99.90;;;;;;5021698;28;20227;-87
2022/05/03 03:47:51;;;;;;;11.13;6.50;;;6.20;99.90;;;;;;5020650;28;20231;-85
2022/05/03 03:50:21;;;;;;;11.30;6.63;;;6.20;99.90;;;;;;5018542;28;20283;-86
2022/05/03 03:52:56;;;;;;;14.93;7.47;;;6.20;99.90;;;;;;5011904;28;20218;-87
2022/05/03 03:55:25;;;;;;;12.13;5.97;;;6.10;99.90;;;;;;5003595;28;20653;-85
2022/05/03 03:57:54;;;;;;;10.13;6.50;;;6.10;99.90;;;;;;5011519;28;20256;-87
2022/05/03 04:00:23;;;;;;;10.53;7.03;;;6.10;99.90;;;;;;5011938;28;20301;-84
2022/05/03 04:02:51;;;;;;;13.27;6.80;;;6.10;99.90;;;;;;5006497;28;20258;-86
2022/05/03 04:05:26;;;;;;;12.17;7.60;;;6.00;99.90;;;;;;5002790;28;20853;-86
2022/05/03 04:07:54;;;;;;;12.40;7.00;;;6.00;99.90;;;;;;5001582;28;20262;-86
2022/05/03 04:10:21;;;;;;;12.43;7.57;;;6.00;99.90;;;;;;5004778;28;20215;-85
2022/05/03 04:12:50;;;;;;;13.67;7.33;;;6.00;99.90;;;;;;5007412;28;20199;-86
2022/05/03 04:15:21;;;;;;;11.83;7.47;;;6.00;99.90;;;;;;5006828;28;20231;-87
2022/05/03 04:17:50;;;;;;;13.60;7.70;;;6.00;99.90;;;;;;5009058;28;20314;-85
2022/05/03 04:20:24;;;;;;;14.27;8.40;;;5.90;99.90;;;;;;4997611;28;20219;-86
2022/05/03 04:22:55;;;;;;;13.97;8.50;;;5.90;99.90;;;;;;4992127;28;20230;-86
2022/05/03 04:25:24;;;;;;;13.63;8.33;;;5.90;99.90;;;;;;4999301;28;20218;-87
2022/05/03 04:27:54;;;;;;;15.23;9.47;;;5.90;99.90;;;;;;5008018;28;20210;-87
2022/05/03 04:30:24;;;;;;;12.87;7.77;;;6.00;99.90;;;;;;5007904;28;20265;-86
2022/05/03 04:32:56;;;;;;;14.30;8.40;;;6.00;99.90;;;;;;5008448;28;20696;-85
2022/05/03 04:35:24;;;;;;;14.87;9.30;;;6.00;99.90;;;;;;5002678;28;20215;-83
2022/05/03 04:37:54;;;;;;;13.53;8.30;;;6.00;99.90;;;;;;4996807;28;20266;-86
2022/05/03 04:40:24;;;;;;;14.83;8.53;;;6.10;99.90;;;;;;4993734;28;20621;-85
2022/05/03 04:42:52;;;;;;;14.13;8.80;;;6.10;99.90;;;;;;4998716;28;20230;-84
2022/05/03 04:45:22;;;;;;;17.60;8.90;;;6.20;99.90;;;;;;5023222;28;20326;-86
2022/05/03 04:47:49;;;;;;;16.23;8.50;;;6.20;99.90;;;;;;5009255;28;20338;-86
2022/05/03 04:50:17;;;;;;;14.73;8.23;;;6.20;99.90;;;;;;5007261;28;20710;-86
2022/05/03 04:52:45;;;;;;;12.03;7.33;;;6.30;99.90;;;;;;5006615;28;20215;-84
2022/05/03 04:55:14;;;;;;;15.87;9.10;;;6.40;99.90;;;;;;4997862;28;20202;-88
2022/05/03 04:57:45;;;;;;;17.60;8.43;;;6.40;99.90;;;;;;5011583;28;20567;-86
2022/05/03 05:00:16;;;;;;;14.87;8.80;;;6.40;99.90;;;;;;5008706;28;20284;-85
2022/05/03 05:02:45;;;;;;;14.40;8.77;;;6.50;99.90;;;;;;5020152;28;20219;-85
2022/05/03 05:05:12;;;;;;;13.90;8.77;;;6.50;99.90;;;;;;5008396;28;20215;-86
2022/05/03 05:07:40;;;;;;;16.17;8.97;;;6.50;99.90;;;;;;4999912;28;20217;-85
2022/05/03 05:10:23;;;;;;;13.67;7.80;;;6.50;99.90;;;;;;4998674;28;20202;-84
2022/05/03 05:12:54;;;;;;;14.03;8.60;;;6.70;99.90;;;;;;5007023;28;20225;-86
2022/05/03 05:15:23;;;;;;;13.03;8.77;;;6.70;99.90;;;;;;5009155;28;20245;-84
2022/05/03 05:17:56;;;;;;;15.87;8.40;;;6.80;99.90;;;;;;5006437;28;20246;-86
2022/05/03 05:20:26;;;;;;;16.53;9.00;;;6.80;99.90;;;;;;5013649;28;20289;-87
2022/05/03 05:23:05;;;;;;;14.03;8.43;;;6.90;99.90;;;;;;5008546;28;20216;-88
2022/05/03 05:25:54;;;;;;;13.33;8.63;;;7.00;99.90;;;;;;5014106;28;20215;-89
2022/05/03 05:28:28;;;;;;;12.83;8.37;;;7.10;99.90;;;;;;5024743;28;20223;-88
2022/05/03 05:30:56;;;;;;;13.90;8.80;;;7.10;99.90;;;;;;5027118;28;20207;-87
2022/05/03 05:33:24;;;;;;;12.60;7.97;;;7.20;99.90;;;;;;5027227;28;20261;-88
2022/05/03 05:36:01;;;;;;;13.10;8.50;;;7.30;99.90;;;;;;5025953;28;20212;-85
2022/05/03 05:38:34;;;;;;;16.67;8.90;;;7.30;99.90;;;;;;5010875;28;20741;-88
2022/05/03 05:41:14;;;;;;;14.50;8.70;;;7.40;99.90;;;;;;5003168;28;20657;-87
2022/05/03 05:43:44;;;;;;;13.57;8.80;;;7.50;99.90;;;;;;5018208;28;20200;-85
2022/05/03 05:46:12;;;;;;;12.73;7.63;;;7.60;99.90;;;;;;5008410;28;20713;-84
2022/05/03 05:48:53;;;;;;;;;;;;;;;;;;;;;
2022/05/03 05:51:26;;;;;;;12.30;8.00;;;7.70;99.90;;;;;;4999315;28;20220;-84
2022/05/03 05:53:57;;;;;;;12.70;7.93;;;7.90;99.90;;;;;;4996126;28;20321;-84
2022/05/03 05:56:24;;;;;;;13.10;8.00;;;8.00;99.90;;;;;;5001872;28;20233;-83
2022/05/03 05:58:53;;;;;;;9.03;6.80;;;8.70;99.90;;;;;;5002366;28;20238;-84
2022/05/03 06:01:36;;;;;;;9.70;7.10;;;9.90;99.90;;;;;;5003735;28;20217;-83
2022/05/03 06:04:04;;;;;;;9.17;5.87;;;11.50;99.90;;;;;;5004756;28;20746;-83
2022/05/03 06:06:36;;;;;;;9.17;5.80;;;13.00;99.90;;;;;;5005657;28;20218;-84
2022/05/03 06:09:04;;;;;;;6.83;5.20;;;;;;;;;;5003561;28;20700;-83
2022/05/03 06:11:31;;;;;;;8.73;5.60;;;15.70;99.90;;;;;;5001136;28;20207;-83
2022/05/03 06:14:01;;;;;;;7.75;5.15;;;16.80;99.90;;;;;;5005395;28;20229;-84
2022/05/03 06:16:46;;;;;;;6.47;5.07;;;17.50;99.90;;;;;;5005357;28;20202;-86
2022/05/03 06:19:15;;;;;;;6.45;4.78;;;18.30;99.90;;;;;;5003844;28;20326;-86
2022/05/03 06:21:47;;;;;;;6.82;4.60;;;18.90;99.90;;;;;;5000490;28;20194;-86
2022/05/03 06:24:15;;;;;;;6.53;4.40;;;19.50;99.90;;;;;;5003499;28;20206;-86
2022/05/03 06:26:46;;;;;;;5.43;4.50;;;19.80;99.90;;;;;;5002466;28;20199;-85
2022/05/03 06:29:15;;;;;;;6.10;4.35;;;20.50;99.90;;;;;;4998409;28;20213;-86
2022/05/03 06:31:45;;;;;;;7.40;4.15;;;20.80;99.90;;;;;;4997397;28;20297;-86
2022/05/03 06:34:14;;;;;;;6.07;4.53;;;21.40;99.90;;;;;;5000672;28;20219;-86
2022/05/03 06:36:41;;;;;;;7.07;4.20;;;21.90;98.90;;;;;;5003591;28;20253;-86
2022/05/03 06:39:10;;;;;;;4.95;4.40;;;22.40;97.00;;;;;;5015451;28;20227;-86
2022/05/03 06:41:43;;;;;;;8.63;4.90;;;23.00;96.10;;;;;;5003907;28;20206;-89
2022/05/03 06:44:13;;;;;;;11.70;5.10;;;23.40;94.50;;;;;;5001240;28;20245;-88
2022/05/03 06:46:40;;;;;;;6.45;4.82;;;23.50;92.90;;;;;;4998229;28;20241;-87
2022/05/03 06:49:10;;;;;;;7.80;4.43;;;23.60;92.50;;;;;;5004409;28;20218;-85
2022/05/03 06:51:38;;;;;;;8.85;4.80;;;23.70;91.60;;;;;;5004378;28;20215;-87
2022/05/03 06:54:05;;;;;;;6.97;5.05;;;23.60;91.00;;;;;;5002631;28;20203;-88
2022/05/03 06:56:35;;;;;;;8.48;5.05;;;23.80;90.40;;;;;;5020331;28;20326;-86
2022/05/03 06:59:08;;;;;;;7.32;5.20;;;23.70;89.80;;;;;;5001390;28;20245;-88
2022/05/03 07:01:42;;;;;;;10.82;5.90;;;23.90;87.70;;;;;;4999559;28;20207;-87
2022/05/03 07:04:25;;;;;;;8.68;6.25;;;23.90;86.80;;;;;;4997245;28;20312;-89
2022/05/03 07:06:52;;;;;;;10.13;6.38;;;23.90;87.40;;;;;;4999241;28;20207;-87
2022/05/03 07:09:24;;;;;;;7.60;6.78;;;24.00;86.80;;;;;;5000563;28;20213;-87
2022/05/03 07:12:17;;;;;;;10.57;7.53;;;23.70;86.10;;;;;;4999592;28;20648;-86
2022/05/03 07:14:50;;;;;;;11.05;8.30;;;23.50;87.00;;;;;;5000240;28;20210;-89
2022/05/03 07:23:14;;;;;;;13.70;8.82;;;23.60;88.10;;;;;;4997440;28;20681;-86
2022/05/03 07:25:55;;;;;;;14.57;10.15;;;23.90;87.50;;;;;;4999253;28;20199;-85
2022/05/03 07:28:22;;;;;;;18.67;12.07;;;24.10;87.10;;;;;;5005033;28;20242;-86
2022/05/03 07:30:51;;;;;;;18.55;13.40;;;24.20;86.30;;;;;;5002739;28;20672;-87
2022/05/03 07:33:35;;;;;;;19.42;12.65;;;24.10;87.10;;;;;;5002396;28;20660;-86
2022/05/03 07:36:07;;;;;;;15.20;11.85;;;24.10;86.10;;;;;;5004173;28;20234;-87
2022/05/03 07:38:55;;;;;;;17.63;12.45;;;24.10;86.30;;;;;;4993738;28;20269;-86
2022/05/03 07:41:31;;;;;;;15.32;11.82;;;24.10;85.90;;;;;;5001903;28;20203;-86
2022/05/03 07:43:58;;;;;;;17.15;13.85;;;24.00;86.00;;;;;;5003373;28;20202;-89
2022/05/03 07:46:25;;;;;;;18.58;12.13;;;24.00;86.30;;;;;;5015280;28;20242;-87
2022/05/03 07:48:56;;;;;;;16.42;12.38;;;23.90;87.50;;;;;;5003171;28;20604;-87
2022/05/03 07:51:28;;;;;;;14.73;11.88;;;24.10;87.60;;;;;;5014679;28;20217;-87
2022/05/03 07:54:03;;;;;;;21.00;12.18;;;24.10;86.10;;;;;;4993885;28;20211;-87
2022/05/03 07:56:35;;;;;;;13.10;11.07;;;24.70;86.40;;;;;;4999295;28;20705;-88
2022/05/03 07:59:09;;;;;;;18.08;13.32;;;24.40;85.20;;;;;;5002085;28;20230;-86
2022/05/03 08:01:41;;;;;;;18.20;12.85;;;24.10;84.70;;;;;;5002264;28;20363;-87
2022/05/03 08:04:13;;;;;;;18.30;12.90;;;24.50;85.00;;;;;;5002147;28;20230;-87
2022/05/03 08:06:45;;;;;;;18.42;13.40;;;24.90;84.50;;;;;;5005237;28;20209;-88
2022/05/03 08:09:15;;;;;;;16.67;12.75;;;25.30;83.10;;;;;;5000125;28;20206;-87
2022/05/03 08:11:48;;;;;;;17.55;13.45;;;25.10;82.60;;;;;;5000714;28;20210;-88
2022/05/03 08:14:21;;;;;;;15.52;12.35;;;24.50;82.90;;;;;;4996824;28;20391;-87
2022/05/03 08:16:48;;;;;;;18.65;13.35;;;23.90;84.20;;;;;;5003863;28;20280;-86
2022/05/03 08:19:17;;;;;;;17.25;12.35;;;23.30;84.70;;;;;;5006876;28;20649;-88
2022/05/03 08:21:46;;;;;;;17.63;13.27;;;22.70;85.90;;;;;;5010392;28;20230;-87
2022/05/03 08:24:15;;;;;;;18.55;13.85;;;22.10;88.10;;;;;;5003512;28;20217;-87
2022/05/03 08:26:44;;;;;;;18.88;13.55;;;21.30;90.20;;;;;;5017894;28;20194;-88
2022/05/03 08:29:14;;;;;;;20.33;13.73;;;20.80;90.80;;;;;;5003445;28;20678;-88
2022/05/03 08:31:44;;;;;;;19.08;14.07;;;20.40;91.20;;;;;;5002568;28;20203;-89
2022/05/03 08:34:14;;;;;;;18.52;13.95;;;20.90;92.30;;;;;;5002866;28;20269;-88
2022/05/03 08:36:50;;;;;;;18.10;12.93;;;20.30;93.90;;;;;;5003774;28;20198;-89
2022/05/03 08:42:21;;;;;;;23.23;14.18;;;;;;;;;;5005393;28;20214;-86
2022/05/03 08:45:00;;;;;;;21.88;15.02;;;19.20;93.80;;;;;;5017063;28;20253;-89
2022/05/03 08:47:28;;;;;;;21.10;15.05;;;18.90;94.70;;;;;;5018470;28;20312;-89
2022/05/03 08:50:03;;;;;;;23.15;14.50;;;18.60;95.20;;;;;;5003342;28;20218;-85
2022/05/03 08:52:39;;;;;;;22.15;15.52;;;18.40;95.70;;;;;;5001462;28;20257;-88
2022/05/03 08:55:07;;;;;;;26.23;16.42;;;18.10;96.20;;;;;;4998445;28;20678;-89
2022/05/03 08:57:34;;;;;;;26.50;15.20;;;18.00;97.00;;;;;;5017719;28;20279;-88
2022/05/03 09:00:05;;;;;;;21.55;14.32;;;17.70;97.40;;;;;;5002260;28;20593;-89
2022/05/03 09:02:43;;;;;;;24.95;15.25;;;17.70;97.90;;;;;;5005151;28;21090;-89
2022/05/03 09:05:13;;;;;;;27.45;15.90;;;17.60;98.10;;;;;;5001816;28;21068;-87
2022/05/03 09:07:57;;;;;;;25.35;15.10;;;17.50;98.40;;;;;;5017321;28;20615;-89
2022/05/03 09:10:32;;;;;;;27.17;16.02;;;17.50;98.90;;;;;;4997711;28;20206;-88
2022/05/03 09:13:26;;;;;;;23.50;14.82;;;17.30;99.50;;;;;;4999414;28;20245;-86
2022/05/03 09:16:08;;;;;;;26.58;15.68;;;17.30;99.80;;;;;;5011257;28;20218;-86
2022/05/03 09:18:38;;;;;;;27.60;16.48;;;17.30;99.90;;;;;;5032725;28;20226;-86
2022/05/03 09:24:11;;;;;;;26.17;15.63;;;17.70;99.90;;;;;;5002339;28;20681;-87
2022/05/03 09:26:41;;;;;;;25.85;14.50;;;17.90;99.90;;;;;;5013645;28;20202;-89
2022/05/03 09:29:10;;;;;;;25.42;16.23;;;18.10;99.90;;;;;;5003609;28;20235;-88
2022/05/03 09:31:46;;;;;;;27.55;16.10;;;18.20;99.90;;;;;;5020610;28;20210;-89
2022/05/03 09:34:26;;;;;;;27.52;15.85;;;18.30;99.90;;;;;;5005593;28;20226;-90
2022/05/03 09:37:05;;;;;;;27.98;15.93;;;18.40;99.90;;;;;;4996128;28;20321;-88
2022/05/03 09:39:47;;;;;;;25.45;15.50;;;18.40;99.90;;;;;;4998854;28;20238;-88
2022/05/03 09:42:17;;;;;;;27.80;16.08;;;18.40;99.90;;;;;;4998418;28;20253;-90
2022/05/03 09:44:58;;;;;;;24.35;14.63;;;18.30;99.90;;;;;;5008097;28;20241;-88
2022/05/03 09:47:34;;;;;;;28.50;17.02;;;18.20;99.90;;;;;;5010454;28;20232;-89
2022/05/03 09:50:06;;;;;;;27.20;16.17;;;18.10;99.90;;;;;;5007631;28;20719;-88
2022/05/03 09:52:39;;;;;;;29.77;15.70;;;18.00;99.90;;;;;;5007434;28;20276;-88
2022/05/03 09:55:11;;;;;;;25.05;14.15;;;18.00;99.90;;;;;;5005680;28;20207;-90
2022/05/03 09:57:45;;;;;;;29.92;15.73;;;18.10;99.90;;;;;;5008706;28;20245;-90
2022/05/03 10:00:34;;;;;;;26.02;14.48;;;18.20;99.90;;;;;;5005425;28;20266;-90
2022/05/03 10:03:09;;;;;;;28.95;16.23;;;18.40;99.90;;;;;;5008095;28;20206;-90
2022/05/03 10:05:41;;;;;;;29.88;16.23;;;18.60;99.90;;;;;;5006386;28;20242;-88
2022/05/03 10:08:21;;;;;;;29.48;16.77;;;18.70;99.90;;;;;;5005543;28;20223;-88
2022/05/03 10:10:58;;;;;;;28.35;16.90;;;18.80;99.90;;;;;;5007961;28;20194;-88
2022/05/03 10:13:28;;;;;;;29.35;16.33;;;18.80;99.90;;;;;;5005029;28;20202;-87
2022/05/03 10:21:40;;;;;;;29.65;17.20;;;20.00;99.90;;;;;;5005431;28;20206;-89
2022/05/03 10:24:15;;;;;;;28.50;16.90;;;19.80;99.90;;;;;;5022541;28;20202;-88
2022/05/03 10:26:53;;;;;;;27.13;15.63;;;19.90;99.90;;;;;;5003637;28;20213;-87
2022/05/03 10:29:36;;;;;;;27.58;15.68;;;20.30;99.90;;;;;;5022216;28;20224;-89
2022/05/03 10:33:01;;;;;;;25.00;15.23;;;20.70;99.90;;;;;;5021963;28;20220;-87
2022/05/03 10:36:54;;;;;;;;;;;;;;;;;;;;;
2022/05/03 10:40:12;;;;;;;;;;;;;;;;;;;;;
2022/05/03 10:43:07;;;;;;;30.52;16.48;;;20.60;99.70;;;;;;4955486;29;20212;-92
2022/05/03 10:46:16;;;;;;;27.02;15.23;;;20.80;99.40;;;;;;4929098;29;20228;-90
2022/05/03 10:49:20;;;;;;;28.27;16.42;;;20.80;98.70;;;;;;4915619;29;20241;-90
2022/05/03 10:51:53;;;;;;;27.33;15.23;;;20.40;98.80;;;;;;4921343;29;20212;-90
2022/05/03 10:54:36;;;;;;;;;;;;;;;;;;;;;
2022/05/03 10:57:14;;;;;;;24.05;14.82;;;20.10;99.80;;;;;;4952855;28;20204;-92
2022/05/03 11:00:05;;;;;;;29.33;16.50;;;20.10;99.30;;;;;;4977137;28;20749;-93
2022/05/03 11:03:29;;;;;;;28.77;16.70;;;20.20;99.70;;;;;;4980602;28;20664;-90
2022/05/03 11:06:46;;;;;;;28.80;16.30;;;20.10;99.80;;;;;;4929463;29;20209;-90
2022/05/03 11:09:30;;;;;;;23.98;13.75;;;20.10;99.60;;;;;;4919053;29;20214;-88
2022/05/03 11:12:02;;;;;;;26.83;15.20;;;20.20;99.70;;;;;;4935204;29;20484;-87
2022/05/03 11:14:31;;;;;;;25.38;14.15;;;20.20;99.70;;;;;;4933201;29;20201;-87
2022/05/03 11:17:08;;;;;;;26.05;14.48;;;20.40;99.90;;;;;;4918871;29;20209;-88
2022/05/03 11:19:49;;;;;;;24.75;14.63;;;20.80;99.40;;;;;;4931177;29;20241;-89
2022/05/03 11:22:31;;;;;;;28.25;15.57;;;21.10;99.10;;;;;;4913402;29;20216;-89
2022/05/03 11:29:36;;;;;;;23.85;13.20;;;21.40;96.80;;;;;;4963505;28;20298;-88
2022/05/03 11:33:01;;;;;;;21.77;13.13;;;21.30;96.60;;;;;;4930810;29;20298;-87
2022/05/03 11:41:07;;;;;;;33.08;16.42;;;21.30;97.40;;;;;;4801592;29;20603;-89
2022/05/03 11:44:41;;;;;;;;;;;;;;;;;;;;;
2022/05/03 11:48:10;;;;;;;;;;;;;;;;;;;;;
2022/05/03 11:58:12;;;;;;;41.75;20.27;;;18.40;99.90;;;;;;4822462;29;20227;-87
2022/05/03 12:01:52;;;;;;;42.28;20.35;;;18.00;99.90;;;;;;4829652;29;20212;-86
2022/05/03 12:05:08;;;;;;;;;;;;;;;;;;;;;
2022/05/03 12:11:31;;;;;;;;;;;;;;;;;;;;;
2022/05/03 12:15:03;;;;;;;45.75;22.55;;;17.30;99.90;;;;;;4910158;29;20305;-87
2022/05/03 12:18:18;;;;;;;42.20;18.92;;;17.30;99.90;;;;;;4929433;29;20213;-86
2022/05/03 12:21:09;;;;;;;43.28;19.95;;;17.20;99.90;;;;;;4930711;29;20229;-88
2022/05/03 12:23:54;;;;;;;40.72;19.38;;;17.20;99.90;;;;;;4928749;29;20212;-86
2022/05/03 12:26:59;;;;;;;37.55;18.98;;;17.20;99.90;;;;;;4927236;29;20325;-86
2022/05/03 12:29:48;;;;;;;43.05;19.10;;;17.20;99.90;;;;;;4988805;28;20200;-87
2022/05/03 12:32:18;;;;;;;37.78;18.08;;;17.00;99.90;;;;;;4964831;28;20211;-85
2022/05/03 12:34:57;;;;;;;39.10;19.17;;;16.90;99.90;;;;;;4965934;28;20248;-87
2022/05/03 12:37:26;;;;;;;35.50;18.33;;;16.90;99.90;;;;;;4969292;28;20203;-87
2022/05/03 12:40:02;;;;;;;40.17;17.73;;;16.80;99.90;;;;;;4964929;28;20265;-87
2022/05/03 12:42:43;;;;;;;30.77;15.33;;;16.70;99.90;;;;;;4960265;28;20203;-88
2022/05/03 12:45:12;;;;;;;36.43;17.53;;;16.60;99.90;;;;;;4970753;28;20226;-85
2022/05/03 12:47:39;;;;;;;28.93;15.20;;;16.40;99.90;;;;;;4996055;28;20227;-86
2022/05/03 12:50:08;;;;;;;29.23;14.10;;;16.40;99.90;;;;;;5005889;28;20245;-86
2022/05/03 12:52:35;;;;;;;28.23;15.03;;;16.30;99.90;;;;;;5007428;28;20274;-85
2022/05/03 12:55:03;;;;;;;28.20;14.17;;;16.20;99.90;;;;;;5004752;28;20296;-86
2022/05/03 13:00:16;;;;;;;23.67;13.40;;;16.00;99.90;;;;;;4998995;28;20226;-85
2022/05/03 13:02:44;;;;;;;22.07;12.20;;;15.90;99.90;;;;;;5012701;28;20632;-87
2022/05/03 13:05:11;;;;;;;26.10;13.53;;;15.80;99.90;;;;;;5000553;28;20707;-85
2022/05/03 13:07:38;;;;;;;27.03;13.70;;;15.80;99.90;;;;;;4999901;28;20210;-85
2022/05/03 13:10:05;;;;;;;24.87;13.23;;;16.00;99.90;;;;;;4995712;28;20266;-85
2022/05/03 13:12:33;;;;;;;26.20;13.27;;;15.90;99.90;;;;;;4999227;28;20214;-86
2022/05/03 13:15:03;;;;;;;26.07;13.10;;;15.80;99.90;;;;;;4996000;28;20297;-86
2022/05/03 13:17:30;;;;;;;27.20;13.03;;;15.80;99.90;;;;;;4996857;28;20288;-85
2022/05/03 13:19:59;;;;;;;22.13;12.97;;;15.80;99.90;;;;;;4996237;28;20662;-88
2022/05/03 13:22:28;;;;;;;26.90;13.27;;;15.70;99.90;;;;;;4999478;28;20302;-87
2022/05/03 13:24:55;;;;;;;25.50;13.60;;;15.70;99.90;;;;;;4999222;28;20210;-86
2022/05/03 13:27:22;;;;;;;26.20;13.03;;;15.70;99.90;;;;;;5000595;28;20592;-85
2022/05/03 13:29:54;;;;;;;25.07;13.23;;;15.80;99.90;;;;;;4996903;28;20573;-87
2022/05/03 13:32:21;;;;;;;27.00;12.50;;;15.60;99.90;;;;;;4996961;28;20297;-86
2022/05/03 13:34:48;;;;;;;27.50;13.57;;;15.60;99.90;;;;;;4997675;28;20240;-87
2022/05/03 13:40:28;;;;;;;23.57;11.97;;;15.60;99.90;;;;;;4999407;28;20219;-86
2022/05/03 13:43:04;;;;;;;26.03;12.93;;;15.50;99.90;;;;;;4998947;28;20203;-87
2022/05/03 13:45:32;;;;;;;29.17;13.20;;;15.40;99.90;;;;;;4997502;28;20226;-87
2022/05/03 13:48:26;;;;;;;26.67;11.63;;;15.40;99.90;;;;;;4999462;28;20226;-86
2022/05/03 13:50:53;;;;;;;25.97;12.50;;;15.40;99.90;;;;;;4997558;28;20210;-86
2022/05/03 13:53:20;;;;;;;25.00;12.97;;;15.40;99.90;;;;;;4995203;28;20209;-89
2022/05/03 13:55:47;;;;;;;29.33;14.10;;;15.30;99.90;;;;;;4997587;28;20341;-86
2022/05/03 13:58:14;;;;;;;28.27;13.40;;;15.30;99.90;;;;;;4997636;28;20202;-85
2022/05/03 14:00:43;;;;;;;28.13;14.07;;;15.30;99.90;;;;;;4999356;28;20226;-85
2022/05/03 14:03:12;;;;;;;25.20;13.33;;;15.30;99.90;;;;;;4997522;28;20571;-87
2022/05/03 14:05:41;;;;;;;23.60;12.50;;;15.30;99.90;;;;;;5000119;28;20210;-85
2022/05/03 14:08:10;;;;;;;24.07;12.27;;;15.30;99.90;;;;;;5001377;28;20198;-88
2022/05/03 14:10:38;;;;;;;24.27;13.30;;;15.40;99.90;;;;;;5005809;28;20228;-85
2022/05/03 14:13:07;;;;;;;20.63;11.20;;;15.40;99.90;;;;;;5011311;28;20199;-86
2022/05/03 14:15:37;;;;;;;27.13;12.17;;;15.40;99.90;;;;;;5024865;28;20210;-85
2022/05/03 14:18:05;;;;;;;24.07;11.53;;;15.40;99.90;;;;;;5007128;28;20206;-86
2022/05/03 14:20:33;;;;;;;22.90;12.63;;;15.40;99.90;;;;;;5009815;28;20244;-87
2022/05/03 14:23:02;;;;;;;24.50;11.47;;;15.30;99.90;;;;;;5008982;28;20210;-86
2022/05/03 14:25:31;;;;;;;22.80;10.90;;;15.30;99.90;;;;;;5004639;28;20238;-87
2022/05/03 14:27:59;;;;;;;22.63;11.87;;;15.30;99.90;;;;;;5010885;28;20217;-84
2022/05/03 14:30:27;;;;;;;27.37;11.57;;;15.30;99.90;;;;;;5001378;28;20241;-86
2022/05/03 14:33:02;;;;;;;19.53;10.10;;;15.30;99.90;;;;;;5005822;28;20203;-85
2022/05/03 14:35:42;;;;;;;26.13;11.43;;;15.50;99.90;;;;;;5008196;28;20210;-88